sensor_id;sensor_type;location;lat;lon;timestamp;temperature;humidity
44775;DHT22;31340;51.402;0.016;2022-07-23T00:00:32;19.60;87.20
44775;DHT22;31340;51.402;0.016;2022-07-23T00:03:06;19.70;87.20
44775;DHT22;31340;51.402;0.016;2022-07-23T00:05:34;19.70;87.20
44775;DHT22;31340;51.402;0.016;2022-07-23T00:08:17;19.70;87.20
44775;DHT22;31340;51.402;0.016;2022-07-23T00:11:10;19.70;87.30
44775;DHT22;31340;51.402;0.016;2022-07-23T00:13:38;19.70;87.10
44775;DHT22;31340;51.402;0.016;2022-07-23T00:16:05;19.70;87.20
44775;DHT22;31340;51.402;0.016;2022-07-23T00:18:33;19.70;87.10
44775;DHT22;31340;51.402;0.016;2022-07-23T00:21:01;19.70;87.10
44775;DHT22;31340;51.402;0.016;2022-07-23T00:23:29;19.70;87.10
44775;DHT22;31340;51.402;0.016;2022-07-23T00:25:58;19.70;87.00
44775;DHT22;31340;51.402;0.016;2022-07-23T00:28:25;19.80;87.10
44775;DHT22;31340;51.402;0.016;2022-07-23T00:30:53;19.70;87.90
44775;DHT22;31340;51.402;0.016;2022-07-23T00:33:20;19.70;87.90
44775;DHT22;31340;51.402;0.016;2022-07-23T00:35:48;19.80;87.10
44775;DHT22;31340;51.402;0.016;2022-07-23T00:38:15;19.80;87.10
44775;DHT22;31340;51.402;0.016;2022-07-23T00:40:43;19.70;87.00
44775;DHT22;31340;51.402;0.016;2022-07-23T00:43:10;19.80;87.10
44775;DHT22;31340;51.402;0.016;2022-07-23T00:45:38;19.70;87.20
44775;DHT22;31340;51.402;0.016;2022-07-23T00:48:07;19.80;87.30
44775;DHT22;31340;51.402;0.016;2022-07-23T00:50:34;19.80;87.40
44775;DHT22;31340;51.402;0.016;2022-07-23T00:53:02;19.80;87.40
44775;DHT22;31340;51.402;0.016;2022-07-23T00:55:30;19.70;87.30
44775;DHT22;31340;51.402;0.016;2022-07-23T00:57:58;19.70;87.30
44775;DHT22;31340;51.402;0.016;2022-07-23T01:00:26;19.70;87.40
44775;DHT22;31340;51.402;0.016;2022-07-23T01:02:54;19.80;87.50
44775;DHT22;31340;51.402;0.016;2022-07-23T01:05:22;19.80;87.50
44775;DHT22;31340;51.402;0.016;2022-07-23T01:07:51;19.70;87.40
44775;DHT22;31340;51.402;0.016;2022-07-23T01:10:23;19.80;87.50
44775;DHT22;31340;51.402;0.016;2022-07-23T01:13:09;19.80;88.20
44775;DHT22;31340;51.402;0.016;2022-07-23T01:15:38;19.80;87.60
44775;DHT22;31340;51.402;0.016;2022-07-23T01:18:07;19.80;87.60
44775;DHT22;31340;51.402;0.016;2022-07-23T01:20:37;19.80;87.60
44775;DHT22;31340;51.402;0.016;2022-07-23T01:23:05;19.70;87.60
44775;DHT22;31340;51.402;0.016;2022-07-23T01:25:33;19.70;87.50
44775;DHT22;31340;51.402;0.016;2022-07-23T01:28:03;19.70;87.40
44775;DHT22;31340;51.402;0.016;2022-07-23T01:30:30;19.70;87.40
44775;DHT22;31340;51.402;0.016;2022-07-23T01:32:59;19.70;87.40
44775;DHT22;31340;51.402;0.016;2022-07-23T01:35:27;19.70;87.50
44775;DHT22;31340;51.402;0.016;2022-07-23T01:37:59;19.60;87.40
44775;DHT22;31340;51.402;0.016;2022-07-23T01:40:26;19.60;87.40
44775;DHT22;31340;51.402;0.016;2022-07-23T01:42:55;19.60;87.50
44775;DHT22;31340;51.402;0.016;2022-07-23T01:45:23;19.60;87.60
44775;DHT22;31340;51.402;0.016;2022-07-23T01:47:52;19.60;87.70
44775;DHT22;31340;51.402;0.016;2022-07-23T01:50:19;19.60;87.80
44775;DHT22;31340;51.402;0.016;2022-07-23T01:53:13;19.50;87.90
44775;DHT22;31340;51.402;0.016;2022-07-23T01:55:42;19.50;88.00
44775;DHT22;31340;51.402;0.016;2022-07-23T01:58:10;19.50;88.10
44775;DHT22;31340;51.402;0.016;2022-07-23T02:00:39;19.50;88.30
44775;DHT22;31340;51.402;0.016;2022-07-23T02:03:07;19.50;88.40
44775;DHT22;31340;51.402;0.016;2022-07-23T02:05:37;19.50;88.50
44775;DHT22;31340;51.402;0.016;2022-07-23T02:08:04;19.40;88.50
44775;DHT22;31340;51.402;0.016;2022-07-23T02:10:35;19.50;88.70
44775;DHT22;31340;51.402;0.016;2022-07-23T02:13:04;19.40;88.60
44775;DHT22;31340;51.402;0.016;2022-07-23T02:15:31;19.50;88.80
44775;DHT22;31340;51.402;0.016;2022-07-23T02:18:00;19.50;88.80
44775;DHT22;31340;51.402;0.016;2022-07-23T02:20:27;19.50;88.80
44775;DHT22;31340;51.402;0.016;2022-07-23T02:22:55;19.50;88.80
44775;DHT22;31340;51.402;0.016;2022-07-23T02:25:23;19.50;88.80
44775;DHT22;31340;51.402;0.016;2022-07-23T02:27:56;19.50;89.00
44775;DHT22;31340;51.402;0.016;2022-07-23T02:30:23;19.50;89.00
44775;DHT22;31340;51.402;0.016;2022-07-23T02:32:51;19.50;89.10
44775;DHT22;31340;51.402;0.016;2022-07-23T02:35:19;19.50;89.10
44775;DHT22;31340;51.402;0.016;2022-07-23T02:37:48;19.40;89.20
44775;DHT22;31340;51.402;0.016;2022-07-23T02:40:18;19.40;89.20
44775;DHT22;31340;51.402;0.016;2022-07-23T02:42:45;19.50;89.20
44775;DHT22;31340;51.402;0.016;2022-07-23T02:45:13;19.40;89.10
44775;DHT22;31340;51.402;0.016;2022-07-23T02:47:41;19.50;89.20
44775;DHT22;31340;51.402;0.016;2022-07-23T02:50:09;19.50;89.20
44775;DHT22;31340;51.402;0.016;2022-07-23T02:52:38;19.50;90.00
44775;DHT22;31340;51.402;0.016;2022-07-23T02:55:07;19.40;89.20
44775;DHT22;31340;51.402;0.016;2022-07-23T02:57:35;19.50;89.20
44775;DHT22;31340;51.402;0.016;2022-07-23T03:00:04;19.50;89.30
44775;DHT22;31340;51.402;0.016;2022-07-23T03:02:33;19.40;89.20
44775;DHT22;31340;51.402;0.016;2022-07-23T03:05:00;19.40;89.10
44775;DHT22;31340;51.402;0.016;2022-07-23T03:07:28;19.40;89.30
44775;DHT22;31340;51.402;0.016;2022-07-23T03:09:56;19.40;89.40
44775;DHT22;31340;51.402;0.016;2022-07-23T03:12:23;19.40;89.40
44775;DHT22;31340;51.402;0.016;2022-07-23T03:14:51;19.40;89.50
44775;DHT22;31340;51.402;0.016;2022-07-23T03:17:19;19.30;89.40
44775;DHT22;31340;51.402;0.016;2022-07-23T03:19:47;19.30;89.50
44775;DHT22;31340;51.402;0.016;2022-07-23T03:22:15;19.30;89.60
44775;DHT22;31340;51.402;0.016;2022-07-23T03:24:42;19.30;89.60
44775;DHT22;31340;51.402;0.016;2022-07-23T03:27:29;19.30;89.70
44775;DHT22;31340;51.402;0.016;2022-07-23T03:29:58;19.30;90.20
44775;DHT22;31340;51.402;0.016;2022-07-23T03:32:26;19.30;89.80
44775;DHT22;31340;51.402;0.016;2022-07-23T03:34:55;19.30;89.80
44775;DHT22;31340;51.402;0.016;2022-07-23T03:37:24;19.20;89.80
44775;DHT22;31340;51.402;0.016;2022-07-23T03:39:52;19.20;90.00
44775;DHT22;31340;51.402;0.016;2022-07-23T03:42:20;19.20;90.00
44775;DHT22;31340;51.402;0.016;2022-07-23T03:44:47;19.10;90.00
44775;DHT22;31340;51.402;0.016;2022-07-23T03:47:15;19.10;90.10
44775;DHT22;31340;51.402;0.016;2022-07-23T03:49:44;19.10;90.20
44775;DHT22;31340;51.402;0.016;2022-07-23T03:52:12;19.10;90.30
44775;DHT22;31340;51.402;0.016;2022-07-23T03:54:39;19.10;90.30
44775;DHT22;31340;51.402;0.016;2022-07-23T03:57:07;19.00;90.40
44775;DHT22;31340;51.402;0.016;2022-07-23T03:59:34;19.00;90.40
44775;DHT22;31340;51.402;0.016;2022-07-23T04:02:02;19.00;90.50
44775;DHT22;31340;51.402;0.016;2022-07-23T04:04:30;19.10;90.50
44775;DHT22;31340;51.402;0.016;2022-07-23T04:06:58;19.00;90.50
44775;DHT22;31340;51.402;0.016;2022-07-23T04:09:26;19.00;90.60
44775;DHT22;31340;51.402;0.016;2022-07-23T04:11:53;19.00;90.70
44775;DHT22;31340;51.402;0.016;2022-07-23T04:14:21;19.00;90.80
44775;DHT22;31340;51.402;0.016;2022-07-23T04:16:49;19.00;90.80
44775;DHT22;31340;51.402;0.016;2022-07-23T04:19:16;18.90;90.80
44775;DHT22;31340;51.402;0.016;2022-07-23T04:22:01;18.90;90.80
44775;DHT22;31340;51.402;0.016;2022-07-23T04:24:30;18.90;90.90
44775;DHT22;31340;51.402;0.016;2022-07-23T04:26:58;18.90;91.00
44775;DHT22;31340;51.402;0.016;2022-07-23T04:29:25;18.90;91.00
44775;DHT22;31340;51.402;0.016;2022-07-23T04:31:53;18.90;91.10
44775;DHT22;31340;51.402;0.016;2022-07-23T04:34:21;18.90;91.10
44775;DHT22;31340;51.402;0.016;2022-07-23T04:36:49;18.90;91.20
44775;DHT22;31340;51.402;0.016;2022-07-23T04:39:17;18.90;91.20
44775;DHT22;31340;51.402;0.016;2022-07-23T04:41:45;18.90;91.30
44775;DHT22;31340;51.402;0.016;2022-07-23T04:44:14;18.90;91.30
44775;DHT22;31340;51.402;0.016;2022-07-23T04:46:41;18.90;91.40
44775;DHT22;31340;51.402;0.016;2022-07-23T04:49:09;18.80;91.40
44775;DHT22;31340;51.402;0.016;2022-07-23T04:51:37;18.90;91.50
44775;DHT22;31340;51.402;0.016;2022-07-23T04:54:04;18.80;91.80
44775;DHT22;31340;51.402;0.016;2022-07-23T04:56:32;18.80;91.60
44775;DHT22;31340;51.402;0.016;2022-07-23T04:58:59;18.80;91.60
44775;DHT22;31340;51.402;0.016;2022-07-23T05:01:28;18.80;91.60
44775;DHT22;31340;51.402;0.016;2022-07-23T05:03:56;18.80;91.60
44775;DHT22;31340;51.402;0.016;2022-07-23T05:06:27;18.80;91.70
44775;DHT22;31340;51.402;0.016;2022-07-23T05:08:55;18.80;91.80
44775;DHT22;31340;51.402;0.016;2022-07-23T05:11:23;18.80;91.80
44775;DHT22;31340;51.402;0.016;2022-07-23T05:13:54;18.80;91.80
44775;DHT22;31340;51.402;0.016;2022-07-23T05:16:22;18.80;91.90
44775;DHT22;31340;51.402;0.016;2022-07-23T05:18:54;18.80;92.20
44775;DHT22;31340;51.402;0.016;2022-07-23T05:21:21;18.80;91.90
44775;DHT22;31340;51.402;0.016;2022-07-23T05:23:49;18.80;92.00
44775;DHT22;31340;51.402;0.016;2022-07-23T05:26:16;18.80;92.00
44775;DHT22;31340;51.402;0.016;2022-07-23T05:28:44;18.80;92.10
44775;DHT22;31340;51.402;0.016;2022-07-23T05:31:26;18.80;92.10
44775;DHT22;31340;51.402;0.016;2022-07-23T05:33:54;18.80;92.20
44775;DHT22;31340;51.402;0.016;2022-07-23T05:36:21;18.80;92.30
44775;DHT22;31340;51.402;0.016;2022-07-23T05:38:52;18.80;92.30
44775;DHT22;31340;51.402;0.016;2022-07-23T05:41:20;18.80;92.30
44775;DHT22;31340;51.402;0.016;2022-07-23T05:43:48;18.80;92.40
44775;DHT22;31340;51.402;0.016;2022-07-23T05:46:16;18.80;92.50
44775;DHT22;31340;51.402;0.016;2022-07-23T05:48:48;18.90;92.50
44775;DHT22;31340;51.402;0.016;2022-07-23T05:51:37;18.90;92.50
44775;DHT22;31340;51.402;0.016;2022-07-23T05:54:05;18.90;92.50
44775;DHT22;31340;51.402;0.016;2022-07-23T05:56:36;19.00;92.50
44775;DHT22;31340;51.402;0.016;2022-07-23T05:59:04;19.00;92.50
44775;DHT22;31340;51.402;0.016;2022-07-23T06:01:32;19.10;92.50
44775;DHT22;31340;51.402;0.016;2022-07-23T06:04:10;19.10;92.50
44775;DHT22;31340;51.402;0.016;2022-07-23T06:06:44;19.10;92.70
44775;DHT22;31340;51.402;0.016;2022-07-23T06:09:12;19.20;92.40
44775;DHT22;31340;51.402;0.016;2022-07-23T06:11:41;19.20;92.40
44775;DHT22;31340;51.402;0.016;2022-07-23T06:14:08;19.30;92.70
44775;DHT22;31340;51.402;0.016;2022-07-23T06:16:47;19.30;92.20
44775;DHT22;31340;51.402;0.016;2022-07-23T06:19:15;19.40;92.10
44775;DHT22;31340;51.402;0.016;2022-07-23T06:21:43;19.40;92.00
44775;DHT22;31340;51.402;0.016;2022-07-23T06:24:15;19.40;91.80
44775;DHT22;31340;51.402;0.016;2022-07-23T06:26:43;19.50;91.70
44775;DHT22;31340;51.402;0.016;2022-07-23T06:29:10;19.50;91.50
44775;DHT22;31340;51.402;0.016;2022-07-23T06:31:38;19.50;91.30
44775;DHT22;31340;51.402;0.016;2022-07-23T06:34:06;19.60;91.20
44775;DHT22;31340;51.402;0.016;2022-07-23T06:36:35;19.60;91.00
44775;DHT22;31340;51.402;0.016;2022-07-23T06:39:03;19.70;90.90
44775;DHT22;31340;51.402;0.016;2022-07-23T06:41:32;19.70;90.70
44775;DHT22;31340;51.402;0.016;2022-07-23T06:44:00;19.70;90.50
44775;DHT22;31340;51.402;0.016;2022-07-23T06:46:30;19.80;90.30
44775;DHT22;31340;51.402;0.016;2022-07-23T06:48:58;19.80;90.10
44775;DHT22;31340;51.402;0.016;2022-07-23T06:51:29;19.90;90.00
44775;DHT22;31340;51.402;0.016;2022-07-23T06:53:56;19.90;89.90
44775;DHT22;31340;51.402;0.016;2022-07-23T06:56:24;20.00;89.60
44775;DHT22;31340;51.402;0.016;2022-07-23T06:58:51;20.00;89.40
44775;DHT22;31340;51.402;0.016;2022-07-23T07:01:19;20.10;89.10
44775;DHT22;31340;51.402;0.016;2022-07-23T07:03:47;20.10;88.80
44775;DHT22;31340;51.402;0.016;2022-07-23T07:06:15;20.20;88.70
44775;DHT22;31340;51.402;0.016;2022-07-23T07:08:42;20.20;88.50
44775;DHT22;31340;51.402;0.016;2022-07-23T07:11:11;20.30;88.10
44775;DHT22;31340;51.402;0.016;2022-07-23T07:13:39;20.30;87.80
44775;DHT22;31340;51.402;0.016;2022-07-23T07:16:06;20.40;87.70
44775;DHT22;31340;51.402;0.016;2022-07-23T07:18:34;20.50;87.50
44775;DHT22;31340;51.402;0.016;2022-07-23T07:21:01;20.50;87.30
44775;DHT22;31340;51.402;0.016;2022-07-23T07:23:29;20.60;87.40
44775;DHT22;31340;51.402;0.016;2022-07-23T07:25:56;20.60;86.80
44775;DHT22;31340;51.402;0.016;2022-07-23T07:28:24;20.70;86.60
44775;DHT22;31340;51.402;0.016;2022-07-23T07:30:51;20.70;86.30
44775;DHT22;31340;51.402;0.016;2022-07-23T07:33:19;20.80;86.30
44775;DHT22;31340;51.402;0.016;2022-07-23T07:35:48;20.80;85.90
44775;DHT22;31340;51.402;0.016;2022-07-23T07:38:15;20.90;85.50
44775;DHT22;31340;51.402;0.016;2022-07-23T07:40:43;20.90;85.40
44775;DHT22;31340;51.402;0.016;2022-07-23T07:43:11;21.00;85.30
44775;DHT22;31340;51.402;0.016;2022-07-23T07:45:38;21.00;84.90
44775;DHT22;31340;51.402;0.016;2022-07-23T07:48:06;21.10;84.60
44775;DHT22;31340;51.402;0.016;2022-07-23T07:50:33;21.10;85.00
44775;DHT22;31340;51.402;0.016;2022-07-23T07:53:02;21.20;83.80
44775;DHT22;31340;51.402;0.016;2022-07-23T07:55:29;21.20;83.60
44775;DHT22;31340;51.402;0.016;2022-07-23T07:57:58;21.30;82.80
44775;DHT22;31340;51.402;0.016;2022-07-23T08:00:29;21.30;81.20
44775;DHT22;31340;51.402;0.016;2022-07-23T08:02:57;21.40;80.80
44775;DHT22;31340;51.402;0.016;2022-07-23T08:05:28;21.40;80.50
44775;DHT22;31340;51.402;0.016;2022-07-23T08:07:57;21.50;79.70
44775;DHT22;31340;51.402;0.016;2022-07-23T08:10:26;21.50;78.70
44775;DHT22;31340;51.402;0.016;2022-07-23T08:12:56;21.60;78.70
44775;DHT22;31340;51.402;0.016;2022-07-23T08:15:26;21.60;77.50
44775;DHT22;31340;51.402;0.016;2022-07-23T08:17:55;21.60;76.00
44775;DHT22;31340;51.402;0.016;2022-07-23T08:20:23;21.60;75.60
44775;DHT22;31340;51.402;0.016;2022-07-23T08:23:00;21.70;75.50
44775;DHT22;31340;51.402;0.016;2022-07-23T08:25:33;21.70;75.30
44775;DHT22;31340;51.402;0.016;2022-07-23T08:28:03;21.80;74.50
44775;DHT22;31340;51.402;0.016;2022-07-23T08:30:32;21.80;74.00
44775;DHT22;31340;51.402;0.016;2022-07-23T08:35:39;22.00;73.60
44775;DHT22;31340;51.402;0.016;2022-07-23T08:38:09;22.00;72.90
44775;DHT22;31340;51.402;0.016;2022-07-23T08:40:42;22.10;72.10
44775;DHT22;31340;51.402;0.016;2022-07-23T08:43:15;22.20;72.20
44775;DHT22;31340;51.402;0.016;2022-07-23T08:45:48;22.20;71.50
44775;DHT22;31340;51.402;0.016;2022-07-23T08:48:21;22.30;70.10
44775;DHT22;31340;51.402;0.016;2022-07-23T08:50:52;22.30;70.00
44775;DHT22;31340;51.402;0.016;2022-07-23T08:53:22;22.30;69.40
44775;DHT22;31340;51.402;0.016;2022-07-23T08:55:57;22.40;68.90
44775;DHT22;31340;51.402;0.016;2022-07-23T08:58:26;22.40;68.80
44775;DHT22;31340;51.402;0.016;2022-07-23T09:00:57;22.50;68.90
44775;DHT22;31340;51.402;0.016;2022-07-23T09:03:33;22.50;68.30
44775;DHT22;31340;51.402;0.016;2022-07-23T09:06:01;22.60;68.00
44775;DHT22;31340;51.402;0.016;2022-07-23T09:08:40;22.60;66.30
44775;DHT22;31340;51.402;0.016;2022-07-23T09:11:11;22.70;65.30
44775;DHT22;31340;51.402;0.016;2022-07-23T09:13:49;22.70;65.20
44775;DHT22;31340;51.402;0.016;2022-07-23T09:16:24;22.70;65.80
44775;DHT22;31340;51.402;0.016;2022-07-23T09:18:58;22.70;65.30
44775;DHT22;31340;51.402;0.016;2022-07-23T09:21:30;22.80;64.80
44775;DHT22;31340;51.402;0.016;2022-07-23T09:24:03;22.80;64.40
44775;DHT22;31340;51.402;0.016;2022-07-23T09:26:37;22.90;63.50
44775;DHT22;31340;51.402;0.016;2022-07-23T09:29:13;23.00;63.30
44775;DHT22;31340;51.402;0.016;2022-07-23T09:31:49;23.10;63.10
44775;DHT22;31340;51.402;0.016;2022-07-23T09:34:27;23.10;63.10
44775;DHT22;31340;51.402;0.016;2022-07-23T09:37:09;23.20;62.00
44775;DHT22;31340;51.402;0.016;2022-07-23T09:39:36;23.30;61.60
44775;DHT22;31340;51.402;0.016;2022-07-23T09:44:46;23.50;59.50
44775;DHT22;31340;51.402;0.016;2022-07-23T09:47:14;23.50;59.80
44775;DHT22;31340;51.402;0.016;2022-07-23T09:50:01;23.60;60.00
44775;DHT22;31340;51.402;0.016;2022-07-23T09:52:43;23.70;59.30
44775;DHT22;31340;51.402;0.016;2022-07-23T09:55:11;23.70;59.00
44775;DHT22;31340;51.402;0.016;2022-07-23T09:57:41;23.80;58.90
44775;DHT22;31340;51.402;0.016;2022-07-23T10:00:09;23.90;58.50
44775;DHT22;31340;51.402;0.016;2022-07-23T10:02:39;24.00;57.70
44775;DHT22;31340;51.402;0.016;2022-07-23T10:05:25;24.10;57.00
44775;DHT22;31340;51.402;0.016;2022-07-23T10:08:18;24.20;57.00
44775;DHT22;31340;51.402;0.016;2022-07-23T10:11:04;24.40;56.90
44775;DHT22;31340;51.402;0.016;2022-07-23T10:13:54;24.60;56.60
44775;DHT22;31340;51.402;0.016;2022-07-23T10:16:51;24.80;55.80
44775;DHT22;31340;51.402;0.016;2022-07-23T10:19:19;24.90;54.70
44775;DHT22;31340;51.402;0.016;2022-07-23T10:21:53;25.10;54.50
44775;DHT22;31340;51.402;0.016;2022-07-23T10:36:04;26.40;51.30
44775;DHT22;31340;51.402;0.016;2022-07-23T10:41:32;26.90;48.90
44775;DHT22;31340;51.402;0.016;2022-07-23T10:44:14;27.10;48.10
44775;DHT22;31340;51.402;0.016;2022-07-23T10:47:08;27.30;46.70
44775;DHT22;31340;51.402;0.016;2022-07-23T10:50:26;27.60;46.20
44775;DHT22;31340;51.402;0.016;2022-07-23T10:58:05;28.10;45.00
44775;DHT22;31340;51.402;0.016;2022-07-23T11:00:35;28.30;44.40
44775;DHT22;31340;51.402;0.016;2022-07-23T11:03:05;28.40;44.20
44775;DHT22;31340;51.402;0.016;2022-07-23T11:05:52;28.50;44.30
44775;DHT22;31340;51.402;0.016;2022-07-23T11:08:21;28.70;43.60
44775;DHT22;31340;51.402;0.016;2022-07-23T11:11:17;28.80;43.30
44775;DHT22;31340;51.402;0.016;2022-07-23T11:13:47;29.00;42.80
44775;DHT22;31340;51.402;0.016;2022-07-23T11:16:18;29.10;43.20
44775;DHT22;31340;51.402;0.016;2022-07-23T11:34:39;30.20;40.70
44775;DHT22;31340;51.402;0.016;2022-07-23T11:37:10;30.30;40.10
44775;DHT22;31340;51.402;0.016;2022-07-23T11:39:38;30.40;39.70
44775;DHT22;31340;51.402;0.016;2022-07-23T11:42:07;30.50;39.60
44775;DHT22;31340;51.402;0.016;2022-07-23T11:44:37;30.60;39.60
44775;DHT22;31340;51.402;0.016;2022-07-23T11:47:07;30.70;39.20
44775;DHT22;31340;51.402;0.016;2022-07-23T11:49:36;30.80;38.40
44775;DHT22;31340;51.402;0.016;2022-07-23T11:52:12;30.90;38.60
44775;DHT22;31340;51.402;0.016;2022-07-23T11:55:00;31.00;37.90
44775;DHT22;31340;51.402;0.016;2022-07-23T11:57:31;31.30;38.10
44775;DHT22;31340;51.402;0.016;2022-07-23T12:00:24;31.40;37.60
44775;DHT22;31340;51.402;0.016;2022-07-23T12:03:03;31.70;36.90
44775;DHT22;31340;51.402;0.016;2022-07-23T12:05:35;31.80;36.70
44775;DHT22;31340;51.402;0.016;2022-07-23T12:08:08;31.90;36.30
44775;DHT22;31340;51.402;0.016;2022-07-23T12:10:39;32.00;36.10
44775;DHT22;31340;51.402;0.016;2022-07-23T12:13:14;32.20;35.60
44775;DHT22;31340;51.402;0.016;2022-07-23T12:15:45;32.30;34.90
44775;DHT22;31340;51.402;0.016;2022-07-23T12:18:15;32.50;34.80
44775;DHT22;31340;51.402;0.016;2022-07-23T12:20:46;32.50;35.00
44775;DHT22;31340;51.402;0.016;2022-07-23T12:23:16;32.60;34.70
44775;DHT22;31340;51.402;0.016;2022-07-23T12:25:49;32.70;34.60
44775;DHT22;31340;51.402;0.016;2022-07-23T12:28:28;32.70;34.10
44775;DHT22;31340;51.402;0.016;2022-07-23T12:30:57;32.70;34.20
44775;DHT22;31340;51.402;0.016;2022-07-23T12:33:27;32.80;34.40
44775;DHT22;31340;51.402;0.016;2022-07-23T12:35:56;32.90;34.00
44775;DHT22;31340;51.402;0.016;2022-07-23T12:38:26;32.90;34.40
44775;DHT22;31340;51.402;0.016;2022-07-23T12:40:58;32.90;33.90
44775;DHT22;31340;51.402;0.016;2022-07-23T12:43:31;32.80;34.80
44775;DHT22;31340;51.402;0.016;2022-07-23T12:48:37;32.90;33.30
44775;DHT22;31340;51.402;0.016;2022-07-23T12:53:50;33.00;32.90
44775;DHT22;31340;51.402;0.016;2022-07-23T12:56:20;33.10;32.80
44775;DHT22;31340;51.402;0.016;2022-07-23T12:58:53;33.10;33.00
44775;DHT22;31340;51.402;0.016;2022-07-23T13:01:24;33.10;32.60
44775;DHT22;31340;51.402;0.016;2022-07-23T13:06:27;33.10;32.60
44775;DHT22;31340;51.402;0.016;2022-07-23T13:08:55;33.20;33.20
44775;DHT22;31340;51.402;0.016;2022-07-23T13:11:23;33.30;33.10
44775;DHT22;31340;51.402;0.016;2022-07-23T13:13:51;33.50;32.60
44775;DHT22;31340;51.402;0.016;2022-07-23T13:16:20;33.60;32.70
44775;DHT22;31340;51.402;0.016;2022-07-23T13:18:47;33.70;32.50
44775;DHT22;31340;51.402;0.016;2022-07-23T13:21:15;33.80;32.30
44775;DHT22;31340;51.402;0.016;2022-07-23T13:23:44;33.90;31.80
44775;DHT22;31340;51.402;0.016;2022-07-23T13:26:11;33.90;31.60
44775;DHT22;31340;51.402;0.016;2022-07-23T13:28:39;33.90;32.10
44775;DHT22;31340;51.402;0.016;2022-07-23T13:31:07;34.00;31.60
44775;DHT22;31340;51.402;0.016;2022-07-23T13:33:35;34.00;31.70
44775;DHT22;31340;51.402;0.016;2022-07-23T13:36:03;34.00;31.70
44775;DHT22;31340;51.402;0.016;2022-07-23T13:38:31;34.00;31.20
44775;DHT22;31340;51.402;0.016;2022-07-23T13:40:59;34.10;31.30
44775;DHT22;31340;51.402;0.016;2022-07-23T13:43:27;34.10;31.30
44775;DHT22;31340;51.402;0.016;2022-07-23T13:45:59;34.30;31.40
44775;DHT22;31340;51.402;0.016;2022-07-23T13:48:27;34.30;30.90
44775;DHT22;31340;51.402;0.016;2022-07-23T13:50:56;34.50;31.00
44775;DHT22;31340;51.402;0.016;2022-07-23T13:53:24;34.60;30.80
44775;DHT22;31340;51.402;0.016;2022-07-23T13:55:53;34.80;30.80
44775;DHT22;31340;51.402;0.016;2022-07-23T13:58:22;34.90;30.90
44775;DHT22;31340;51.402;0.016;2022-07-23T14:00:52;35.00;30.80
44775;DHT22;31340;51.402;0.016;2022-07-23T14:03:21;35.10;30.50
44775;DHT22;31340;51.402;0.016;2022-07-23T14:05:54;35.30;30.60
44775;DHT22;31340;51.402;0.016;2022-07-23T14:08:23;35.20;30.00
44775;DHT22;31340;51.402;0.016;2022-07-23T14:10:51;35.20;29.90
44775;DHT22;31340;51.402;0.016;2022-07-23T14:13:18;35.20;30.10
44775;DHT22;31340;51.402;0.016;2022-07-23T14:15:48;35.10;30.20
44775;DHT22;31340;51.402;0.016;2022-07-23T14:18:17;35.00;30.40
44775;DHT22;31340;51.402;0.016;2022-07-23T14:20:44;35.00;30.60
44775;DHT22;31340;51.402;0.016;2022-07-23T14:23:12;35.00;30.70
44775;DHT22;31340;51.402;0.016;2022-07-23T14:25:40;35.10;30.80
44775;DHT22;31340;51.402;0.016;2022-07-23T14:28:07;35.00;31.10
44775;DHT22;31340;51.402;0.016;2022-07-23T14:30:35;35.10;31.40
44775;DHT22;31340;51.402;0.016;2022-07-23T14:33:03;35.00;31.50
44775;DHT22;31340;51.402;0.016;2022-07-23T14:35:31;35.00;31.40
44775;DHT22;31340;51.402;0.016;2022-07-23T14:37:59;35.00;31.40
44775;DHT22;31340;51.402;0.016;2022-07-23T14:40:26;34.90;31.30
44775;DHT22;31340;51.402;0.016;2022-07-23T14:42:55;34.80;31.60
44775;DHT22;31340;51.402;0.016;2022-07-23T14:45:22;34.70;32.10
44775;DHT22;31340;51.402;0.016;2022-07-23T14:47:50;34.60;32.60
44775;DHT22;31340;51.402;0.016;2022-07-23T14:50:18;34.40;33.50
44775;DHT22;31340;51.402;0.016;2022-07-23T14:52:45;34.30;33.10
44775;DHT22;31340;51.402;0.016;2022-07-23T14:55:15;34.20;33.10
44775;DHT22;31340;51.402;0.016;2022-07-23T14:57:45;34.00;33.30
44775;DHT22;31340;51.402;0.016;2022-07-23T15:00:14;33.70;33.50
44775;DHT22;31340;51.402;0.016;2022-07-23T15:02:42;33.50;34.00
44775;DHT22;31340;51.402;0.016;2022-07-23T15:05:19;33.30;34.50
44775;DHT22;31340;51.402;0.016;2022-07-23T15:07:47;33.10;34.70
44775;DHT22;31340;51.402;0.016;2022-07-23T15:10:16;33.10;34.90
44775;DHT22;31340;51.402;0.016;2022-07-23T15:12:49;32.90;35.70
44775;DHT22;31340;51.402;0.016;2022-07-23T15:15:17;32.70;35.40
44775;DHT22;31340;51.402;0.016;2022-07-23T15:17:45;32.60;35.80
44775;DHT22;31340;51.402;0.016;2022-07-23T15:20:13;32.30;36.10
44775;DHT22;31340;51.402;0.016;2022-07-23T15:23:01;32.20;36.70
44775;DHT22;31340;51.402;0.016;2022-07-23T15:25:28;32.10;37.10
44775;DHT22;31340;51.402;0.016;2022-07-23T15:27:58;32.00;37.40
44775;DHT22;31340;51.402;0.016;2022-07-23T15:30:27;32.00;37.90
44775;DHT22;31340;51.402;0.016;2022-07-23T15:32:55;31.90;38.10
44775;DHT22;31340;51.402;0.016;2022-07-23T15:35:22;31.90;38.20
44775;DHT22;31340;51.402;0.016;2022-07-23T15:37:51;31.80;38.50
44775;DHT22;31340;51.402;0.016;2022-07-23T15:40:18;31.70;38.60
44775;DHT22;31340;51.402;0.016;2022-07-23T15:42:46;31.60;38.80
44775;DHT22;31340;51.402;0.016;2022-07-23T15:45:15;31.60;39.20
44775;DHT22;31340;51.402;0.016;2022-07-23T15:47:44;31.50;39.40
44775;DHT22;31340;51.402;0.016;2022-07-23T15:50:14;31.60;39.80
44775;DHT22;31340;51.402;0.016;2022-07-23T15:52:42;31.50;39.80
44775;DHT22;31340;51.402;0.016;2022-07-23T15:55:11;31.40;40.00
44775;DHT22;31340;51.402;0.016;2022-07-23T15:57:43;31.50;40.40
44775;DHT22;31340;51.402;0.016;2022-07-23T16:00:11;31.60;40.60
44775;DHT22;31340;51.402;0.016;2022-07-23T16:02:39;31.70;40.50
44775;DHT22;31340;51.402;0.016;2022-07-23T16:05:07;31.70;40.30
44775;DHT22;31340;51.402;0.016;2022-07-23T16:07:34;31.80;40.40
44775;DHT22;31340;51.402;0.016;2022-07-23T16:10:05;31.80;40.60
44775;DHT22;31340;51.402;0.016;2022-07-23T16:12:33;31.90;40.40
44775;DHT22;31340;51.402;0.016;2022-07-23T16:15:01;31.80;40.30
44775;DHT22;31340;51.402;0.016;2022-07-23T16:17:33;31.90;40.40
44775;DHT22;31340;51.402;0.016;2022-07-23T16:20:00;31.80;40.40
44775;DHT22;31340;51.402;0.016;2022-07-23T16:22:31;31.80;40.70
44775;DHT22;31340;51.402;0.016;2022-07-23T16:24:59;31.80;40.50
44775;DHT22;31340;51.402;0.016;2022-07-23T16:27:26;31.80;40.50
44775;DHT22;31340;51.402;0.016;2022-07-23T16:29:54;31.80;40.70
44775;DHT22;31340;51.402;0.016;2022-07-23T16:32:21;31.90;40.60
44775;DHT22;31340;51.402;0.016;2022-07-23T16:34:49;32.00;40.70
44775;DHT22;31340;51.402;0.016;2022-07-23T16:37:18;32.00;40.70